sensor_id;sensor_type;location;lat;lon;timestamp;temperature;humidity
78522;SHT31;67819;51.972;5.678;2023-06-26T00:02:17;26.2;54.1
78522;SHT31;67819;51.972;5.678;2023-06-26T00:04:46;26.2;54.2
78522;SHT31;67819;51.972;5.678;2023-06-26T00:07:15;26.1;54.3
78522;SHT31;67819;51.972;5.678;2023-06-26T00:09:43;26.1;54.6
78522;SHT31;67819;51.972;5.678;2023-06-26T00:12:14;26.1;54.8
78522;SHT31;67819;51.972;5.678;2023-06-26T00:14:43;26.1;53.8
78522;SHT31;67819;51.972;5.678;2023-06-26T00:17:11;26.0;54.5
78522;SHT31;67819;51.972;5.678;2023-06-26T00:19:40;26.0;54.3
78522;SHT31;67819;51.972;5.678;2023-06-26T00:22:08;26.0;54.0
78522;SHT31;67819;51.972;5.678;2023-06-26T00:24:37;25.9;53.8
78522;SHT31;67819;51.972;5.678;2023-06-26T00:27:08;25.9;54.8
78522;SHT31;67819;51.972;5.678;2023-06-26T00:29:36;25.9;54.0
78522;SHT31;67819;51.972;5.678;2023-06-26T00:32:06;25.8;53.8
78522;SHT31;67819;51.972;5.678;2023-06-26T00:34:35;25.8;54.2
78522;SHT31;67819;51.972;5.678;2023-06-26T00:37:06;25.8;54.2
78522;SHT31;67819;51.972;5.678;2023-06-26T00:39:34;25.8;54.1
78522;SHT31;67819;51.972;5.678;2023-06-26T00:42:03;25.7;54.4
78522;SHT31;67819;51.972;5.678;2023-06-26T00:44:31;25.7;54.8
78522;SHT31;67819;51.972;5.678;2023-06-26T00:47:01;25.7;55.0
78522;SHT31;67819;51.972;5.678;2023-06-26T00:49:30;25.6;55.0
78522;SHT31;67819;51.972;5.678;2023-06-26T00:51:58;25.6;55.3
78522;SHT31;67819;51.972;5.678;2023-06-26T00:54:29;25.6;55.9
78522;SHT31;67819;51.972;5.678;2023-06-26T00:56:58;25.6;56.0
78522;SHT31;67819;51.972;5.678;2023-06-26T00:59:27;25.5;56.8
78522;SHT31;67819;51.972;5.678;2023-06-26T01:01:56;25.5;57.1
78522;SHT31;67819;51.972;5.678;2023-06-26T01:04:24;25.5;57.2
78522;SHT31;67819;51.972;5.678;2023-06-26T01:06:55;25.5;57.5
78522;SHT31;67819;51.972;5.678;2023-06-26T01:09:26;25.5;57.2
78522;SHT31;67819;51.972;5.678;2023-06-26T01:11:55;25.4;57.2
78522;SHT31;67819;51.972;5.678;2023-06-26T01:14:24;25.4;57.3
78522;SHT31;67819;51.972;5.678;2023-06-26T01:16:53;25.4;57.9
78522;SHT31;67819;51.972;5.678;2023-06-26T01:19:27;25.4;57.5
78522;SHT31;67819;51.972;5.678;2023-06-26T01:22:02;25.3;58.1
78522;SHT31;67819;51.972;5.678;2023-06-26T01:24:44;25.3;57.1
78522;SHT31;67819;51.972;5.678;2023-06-26T01:27:20;25.3;56.9
78522;SHT31;67819;51.972;5.678;2023-06-26T01:29:51;25.2;56.5
78522;SHT31;67819;51.972;5.678;2023-06-26T01:32:21;25.2;56.3
78522;SHT31;67819;51.972;5.678;2023-06-26T01:34:54;25.2;56.1
78522;SHT31;67819;51.972;5.678;2023-06-26T01:37:22;25.1;54.9
78522;SHT31;67819;51.972;5.678;2023-06-26T01:39:51;25.1;54.5
78522;SHT31;67819;51.972;5.678;2023-06-26T01:42:20;25.0;54.0
78522;SHT31;67819;51.972;5.678;2023-06-26T01:44:50;25.0;54.1
78522;SHT31;67819;51.972;5.678;2023-06-26T01:47:24;25.0;53.8
78522;SHT31;67819;51.972;5.678;2023-06-26T01:50:02;24.9;53.9
78522;SHT31;67819;51.972;5.678;2023-06-26T01:52:41;24.9;54.0
78522;SHT31;67819;51.972;5.678;2023-06-26T01:55:16;24.8;53.6
78522;SHT31;67819;51.972;5.678;2023-06-26T01:57:48;24.8;53.0
78522;SHT31;67819;51.972;5.678;2023-06-26T02:00:19;24.7;52.8
78522;SHT31;67819;51.972;5.678;2023-06-26T02:02:48;24.7;53.1
78522;SHT31;67819;51.972;5.678;2023-06-26T02:05:16;24.6;53.3
78522;SHT31;67819;51.972;5.678;2023-06-26T02:07:47;24.5;53.9
78522;SHT31;67819;51.972;5.678;2023-06-26T02:10:17;24.5;54.2
78522;SHT31;67819;51.972;5.678;2023-06-26T02:12:46;24.4;54.2
78522;SHT31;67819;51.972;5.678;2023-06-26T02:15:15;24.4;54.4
78522;SHT31;67819;51.972;5.678;2023-06-26T02:17:43;24.3;54.7
78522;SHT31;67819;51.972;5.678;2023-06-26T02:20:15;24.3;55.1
78522;SHT31;67819;51.972;5.678;2023-06-26T02:22:43;24.2;55.4
78522;SHT31;67819;51.972;5.678;2023-06-26T02:25:12;24.2;55.4
78522;SHT31;67819;51.972;5.678;2023-06-26T02:27:40;24.1;55.9
78522;SHT31;67819;51.972;5.678;2023-06-26T02:30:10;24.0;56.1
78522;SHT31;67819;51.972;5.678;2023-06-26T02:32:39;24.0;56.3
78522;SHT31;67819;51.972;5.678;2023-06-26T02:35:08;23.9;56.7
78522;SHT31;67819;51.972;5.678;2023-06-26T02:37:36;23.8;57.2
78522;SHT31;67819;51.972;5.678;2023-06-26T02:40:05;23.8;57.3
78522;SHT31;67819;51.972;5.678;2023-06-26T02:42:37;23.7;57.4
78522;SHT31;67819;51.972;5.678;2023-06-26T02:45:06;23.6;57.8
78522;SHT31;67819;51.972;5.678;2023-06-26T02:47:35;23.6;58.3
78522;SHT31;67819;51.972;5.678;2023-06-26T02:50:06;23.5;58.3
78522;SHT31;67819;51.972;5.678;2023-06-26T02:52:35;23.5;58.7
78522;SHT31;67819;51.972;5.678;2023-06-26T02:55:04;23.4;58.6
78522;SHT31;67819;51.972;5.678;2023-06-26T02:57:33;23.4;58.9
78522;SHT31;67819;51.972;5.678;2023-06-26T03:00:02;23.3;59.3
78522;SHT31;67819;51.972;5.678;2023-06-26T03:02:33;23.3;59.7
78522;SHT31;67819;51.972;5.678;2023-06-26T03:05:02;23.3;59.8
78522;SHT31;67819;51.972;5.678;2023-06-26T03:07:31;23.2;59.2
78522;SHT31;67819;51.972;5.678;2023-06-26T03:09:59;23.2;59.7
78522;SHT31;67819;51.972;5.678;2023-06-26T03:12:28;23.2;60.2
78522;SHT31;67819;51.972;5.678;2023-06-26T03:14:57;23.1;60.6
78522;SHT31;67819;51.972;5.678;2023-06-26T03:17:25;23.1;60.3
78522;SHT31;67819;51.972;5.678;2023-06-26T03:19:54;23.0;60.8
78522;SHT31;67819;51.972;5.678;2023-06-26T03:22:22;23.0;60.9
78522;SHT31;67819;51.972;5.678;2023-06-26T03:24:51;22.9;61.0
78522;SHT31;67819;51.972;5.678;2023-06-26T03:27:19;22.9;61.6
78522;SHT31;67819;51.972;5.678;2023-06-26T03:29:48;22.9;61.7
78522;SHT31;67819;51.972;5.678;2023-06-26T03:32:17;22.8;61.8
78522;SHT31;67819;51.972;5.678;2023-06-26T03:34:45;22.8;62.3
78522;SHT31;67819;51.972;5.678;2023-06-26T03:37:14;22.7;62.3
78522;SHT31;67819;51.972;5.678;2023-06-26T03:39:42;22.7;62.8
78522;SHT31;67819;51.972;5.678;2023-06-26T03:42:11;22.6;63.1
78522;SHT31;67819;51.972;5.678;2023-06-26T03:44:40;22.6;63.3
78522;SHT31;67819;51.972;5.678;2023-06-26T03:47:08;22.6;63.2
78522;SHT31;67819;51.972;5.678;2023-06-26T03:49:37;22.6;63.3
78522;SHT31;67819;51.972;5.678;2023-06-26T03:52:06;22.6;63.6
78522;SHT31;67819;51.972;5.678;2023-06-26T03:54:37;22.6;63.7
78522;SHT31;67819;51.972;5.678;2023-06-26T03:57:05;22.5;63.6
78522;SHT31;67819;51.972;5.678;2023-06-26T03:59:34;22.5;63.6
78522;SHT31;67819;51.972;5.678;2023-06-26T04:02:02;22.5;64.0
78522;SHT31;67819;51.972;5.678;2023-06-26T04:04:31;22.5;64.1
78522;SHT31;67819;51.972;5.678;2023-06-26T04:07:00;22.5;63.9
78522;SHT31;67819;51.972;5.678;2023-06-26T04:09:28;22.5;64.2
78522;SHT31;67819;51.972;5.678;2023-06-26T04:11:57;22.5;64.5
78522;SHT31;67819;51.972;5.678;2023-06-26T04:14:26;22.5;64.3
78522;SHT31;67819;51.972;5.678;2023-06-26T04:16:54;22.5;64.5
78522;SHT31;67819;51.972;5.678;2023-06-26T04:19:24;22.5;64.2
78522;SHT31;67819;51.972;5.678;2023-06-26T04:21:52;22.5;64.4
78522;SHT31;67819;51.972;5.678;2023-06-26T04:24:23;22.5;64.5
78522;SHT31;67819;51.972;5.678;2023-06-26T04:26:52;22.5;64.5
78522;SHT31;67819;51.972;5.678;2023-06-26T04:29:23;22.5;64.4
78522;SHT31;67819;51.972;5.678;2023-06-26T04:31:54;22.5;64.4
78522;SHT31;67819;51.972;5.678;2023-06-26T04:34:24;22.4;64.3
78522;SHT31;67819;51.972;5.678;2023-06-26T04:36:53;22.4;64.6
78522;SHT31;67819;51.972;5.678;2023-06-26T04:39:21;22.4;64.4
78522;SHT31;67819;51.972;5.678;2023-06-26T04:41:52;22.4;64.6
78522;SHT31;67819;51.972;5.678;2023-06-26T04:44:21;22.3;64.6
78522;SHT31;67819;51.972;5.678;2023-06-26T04:46:49;22.3;64.6
78522;SHT31;67819;51.972;5.678;2023-06-26T04:49:18;22.3;64.9
78522;SHT31;67819;51.972;5.678;2023-06-26T04:51:47;22.3;65.2
78522;SHT31;67819;51.972;5.678;2023-06-26T04:54:17;22.2;65.1
78522;SHT31;67819;51.972;5.678;2023-06-26T04:56:45;22.2;65.0
78522;SHT31;67819;51.972;5.678;2023-06-26T04:59:15;22.2;65.2
78522;SHT31;67819;51.972;5.678;2023-06-26T05:01:44;22.2;65.2
78522;SHT31;67819;51.972;5.678;2023-06-26T05:04:15;22.2;65.2
78522;SHT31;67819;51.972;5.678;2023-06-26T05:06:43;22.2;65.2
78522;SHT31;67819;51.972;5.678;2023-06-26T05:09:12;22.2;65.7
78522;SHT31;67819;51.972;5.678;2023-06-26T05:11:40;22.2;65.3
78522;SHT31;67819;51.972;5.678;2023-06-26T05:14:11;22.3;65.2
78522;SHT31;67819;51.972;5.678;2023-06-26T05:16:41;22.3;65.0
78522;SHT31;67819;51.972;5.678;2023-06-26T05:19:10;22.3;65.1
78522;SHT31;67819;51.972;5.678;2023-06-26T05:21:39;22.5;64.8
78522;SHT31;67819;51.972;5.678;2023-06-26T05:24:09;22.7;64.0
78522;SHT31;67819;51.972;5.678;2023-06-26T05:26:38;23.0;61.7
78522;SHT31;67819;51.972;5.678;2023-06-26T05:29:07;23.3;60.2
78522;SHT31;67819;51.972;5.678;2023-06-26T05:31:41;23.4;59.2
78522;SHT31;67819;51.972;5.678;2023-06-26T05:34:10;23.6;58.4
78522;SHT31;67819;51.972;5.678;2023-06-26T05:36:41;23.8;57.6
78522;SHT31;67819;51.972;5.678;2023-06-26T05:39:10;24.0;56.1
78522;SHT31;67819;51.972;5.678;2023-06-26T05:41:42;24.2;55.4
78522;SHT31;67819;51.972;5.678;2023-06-26T05:44:11;24.4;55.0
78522;SHT31;67819;51.972;5.678;2023-06-26T05:46:42;24.6;54.3
78522;SHT31;67819;51.972;5.678;2023-06-26T05:49:11;24.8;53.4
78522;SHT31;67819;51.972;5.678;2023-06-26T05:51:40;24.9;53.8
78522;SHT31;67819;51.972;5.678;2023-06-26T05:54:09;25.1;52.7
78522;SHT31;67819;51.972;5.678;2023-06-26T05:56:40;25.3;51.8
78522;SHT31;67819;51.972;5.678;2023-06-26T05:59:10;25.4;52.1
78522;SHT31;67819;51.972;5.678;2023-06-26T06:01:39;25.6;51.1
78522;SHT31;67819;51.972;5.678;2023-06-26T06:04:08;25.7;50.3
78522;SHT31;67819;51.972;5.678;2023-06-26T06:06:36;25.8;50.3
78522;SHT31;67819;51.972;5.678;2023-06-26T06:09:05;26.0;50.2
78522;SHT31;67819;51.972;5.678;2023-06-26T06:11:33;26.2;49.1
78522;SHT31;67819;51.972;5.678;2023-06-26T06:14:02;26.4;48.4
78522;SHT31;67819;51.972;5.678;2023-06-26T06:16:31;26.6;47.0
78522;SHT31;67819;51.972;5.678;2023-06-26T06:19:00;26.7;46.4
78522;SHT31;67819;51.972;5.678;2023-06-26T06:21:29;26.8;45.8
78522;SHT31;67819;51.972;5.678;2023-06-26T06:23:58;27.0;46.0
78522;SHT31;67819;51.972;5.678;2023-06-26T06:26:27;27.1;45.2
78522;SHT31;67819;51.972;5.678;2023-06-26T06:28:56;27.2;44.3
78522;SHT31;67819;51.972;5.678;2023-06-26T06:31:24;27.2;44.3
78522;SHT31;67819;51.972;5.678;2023-06-26T06:33:54;27.1;45.2
78522;SHT31;67819;51.972;5.678;2023-06-26T06:36:23;27.1;45.3
78522;SHT31;67819;51.972;5.678;2023-06-26T06:38:52;27.0;45.4
78522;SHT31;67819;51.972;5.678;2023-06-26T06:41:21;27.0;45.8
78522;SHT31;67819;51.972;5.678;2023-06-26T06:43:49;26.8;45.7
78522;SHT31;67819;51.972;5.678;2023-06-26T06:46:18;26.7;46.0
78522;SHT31;67819;51.972;5.678;2023-06-26T06:48:46;26.4;46.0
78522;SHT31;67819;51.972;5.678;2023-06-26T06:51:15;26.2;46.5
78522;SHT31;67819;51.972;5.678;2023-06-26T06:53:44;26.0;46.1
78522;SHT31;67819;51.972;5.678;2023-06-26T06:56:12;25.9;48.0
78522;SHT31;67819;51.972;5.678;2023-06-26T06:58:41;25.8;47.5
78522;SHT31;67819;51.972;5.678;2023-06-26T07:01:12;25.6;47.7
78522;SHT31;67819;51.972;5.678;2023-06-26T07:03:43;25.5;48.7
78522;SHT31;67819;51.972;5.678;2023-06-26T07:06:11;25.4;49.2
78522;SHT31;67819;51.972;5.678;2023-06-26T07:08:42;25.4;49.1
78522;SHT31;67819;51.972;5.678;2023-06-26T07:11:11;25.3;49.4
78522;SHT31;67819;51.972;5.678;2023-06-26T07:13:39;25.1;49.8
78522;SHT31;67819;51.972;5.678;2023-06-26T07:16:08;24.9;51.3
78522;SHT31;67819;51.972;5.678;2023-06-26T07:18:38;24.8;51.3
78522;SHT31;67819;51.972;5.678;2023-06-26T07:21:07;24.7;51.4
78522;SHT31;67819;51.972;5.678;2023-06-26T07:23:35;24.5;52.6
78522;SHT31;67819;51.972;5.678;2023-06-26T07:26:06;24.5;53.1
78522;SHT31;67819;51.972;5.678;2023-06-26T07:28:34;24.4;52.5
78522;SHT31;67819;51.972;5.678;2023-06-26T07:31:03;24.4;53.5
78522;SHT31;67819;51.972;5.678;2023-06-26T07:33:31;24.3;53.5
78522;SHT31;67819;51.972;5.678;2023-06-26T07:36:00;24.3;53.8
78522;SHT31;67819;51.972;5.678;2023-06-26T07:38:28;24.3;53.8
78522;SHT31;67819;51.972;5.678;2023-06-26T07:40:57;24.3;53.3
78522;SHT31;67819;51.972;5.678;2023-06-26T07:43:26;24.3;52.6
78522;SHT31;67819;51.972;5.678;2023-06-26T07:45:54;24.2;52.6
78522;SHT31;67819;51.972;5.678;2023-06-26T07:48:25;24.2;53.3
78522;SHT31;67819;51.972;5.678;2023-06-26T07:50:53;24.1;53.1
78522;SHT31;67819;51.972;5.678;2023-06-26T07:53:22;24.1;53.7
78522;SHT31;67819;51.972;5.678;2023-06-26T07:55:51;24.1;53.4
78522;SHT31;67819;51.972;5.678;2023-06-26T07:58:19;24.1;53.0
78522;SHT31;67819;51.972;5.678;2023-06-26T08:00:48;24.0;53.6
78522;SHT31;67819;51.972;5.678;2023-06-26T08:03:17;24.0;54.3
78522;SHT31;67819;51.972;5.678;2023-06-26T08:05:46;24.0;53.6
78522;SHT31;67819;51.972;5.678;2023-06-26T08:08:14;24.1;53.5
78522;SHT31;67819;51.972;5.678;2023-06-26T08:10:43;24.1;53.0
78522;SHT31;67819;51.972;5.678;2023-06-26T08:13:11;24.1;53.9
78522;SHT31;67819;51.972;5.678;2023-06-26T08:15:40;24.1;53.8
78522;SHT31;67819;51.972;5.678;2023-06-26T08:18:09;24.1;53.1
78522;SHT31;67819;51.972;5.678;2023-06-26T08:20:37;24.0;54.0
78522;SHT31;67819;51.972;5.678;2023-06-26T08:23:06;24.0;53.7
78522;SHT31;67819;51.972;5.678;2023-06-26T08:25:34;24.0;54.1
78522;SHT31;67819;51.972;5.678;2023-06-26T08:28:03;23.9;53.7
78522;SHT31;67819;51.972;5.678;2023-06-26T08:30:32;23.9;54.3
78522;SHT31;67819;51.972;5.678;2023-06-26T08:33:01;23.9;54.2
78522;SHT31;67819;51.972;5.678;2023-06-26T08:35:29;23.8;53.4
78522;SHT31;67819;51.972;5.678;2023-06-26T08:37:58;23.8;54.3
78522;SHT31;67819;51.972;5.678;2023-06-26T08:40:27;23.8;54.1
78522;SHT31;67819;51.972;5.678;2023-06-26T08:42:56;23.9;53.3
78522;SHT31;67819;51.972;5.678;2023-06-26T08:45:24;23.9;51.9
78522;SHT31;67819;51.972;5.678;2023-06-26T08:47:55;24.0;52.2
78522;SHT31;67819;51.972;5.678;2023-06-26T08:50:30;24.0;51.8
78522;SHT31;67819;51.972;5.678;2023-06-26T08:53:04;24.0;52.1
78522;SHT31;67819;51.972;5.678;2023-06-26T08:55:41;24.1;52.9
78522;SHT31;67819;51.972;5.678;2023-06-26T08:58:10;24.1;50.2
78522;SHT31;67819;51.972;5.678;2023-06-26T09:00:40;24.2;51.3
78522;SHT31;67819;51.972;5.678;2023-06-26T09:03:09;24.2;48.0
78522;SHT31;67819;51.972;5.678;2023-06-26T09:05:38;24.2;47.4
78522;SHT31;67819;51.972;5.678;2023-06-26T09:08:07;24.1;48.0
78522;SHT31;67819;51.972;5.678;2023-06-26T09:10:38;24.1;48.0
78522;SHT31;67819;51.972;5.678;2023-06-26T09:13:07;24.0;47.4
78522;SHT31;67819;51.972;5.678;2023-06-26T09:15:44;24.0;48.2
78522;SHT31;67819;51.972;5.678;2023-06-26T09:18:13;23.9;48.8
78522;SHT31;67819;51.972;5.678;2023-06-26T09:20:45;23.9;48.8
78522;SHT31;67819;51.972;5.678;2023-06-26T09:23:14;24.0;48.7
78522;SHT31;67819;51.972;5.678;2023-06-26T09:25:43;24.0;49.7
78522;SHT31;67819;51.972;5.678;2023-06-26T09:28:12;24.0;49.2
78522;SHT31;67819;51.972;5.678;2023-06-26T09:30:41;24.0;49.3
78522;SHT31;67819;51.972;5.678;2023-06-26T09:33:18;24.0;49.9
78522;SHT31;67819;51.972;5.678;2023-06-26T09:35:47;24.0;48.6
78522;SHT31;67819;51.972;5.678;2023-06-26T09:38:16;24.0;48.7
78522;SHT31;67819;51.972;5.678;2023-06-26T09:40:49;24.0;48.8
78522;SHT31;67819;51.972;5.678;2023-06-26T09:43:18;24.0;50.0
78522;SHT31;67819;51.972;5.678;2023-06-26T09:45:47;24.0;48.2
78522;SHT31;67819;51.972;5.678;2023-06-26T09:48:16;24.0;48.3
78522;SHT31;67819;51.972;5.678;2023-06-26T09:50:46;23.9;48.2
78522;SHT31;67819;51.972;5.678;2023-06-26T09:53:15;23.9;48.6
78522;SHT31;67819;51.972;5.678;2023-06-26T09:55:45;23.9;48.3
78522;SHT31;67819;51.972;5.678;2023-06-26T09:58:13;23.9;48.2
78522;SHT31;67819;51.972;5.678;2023-06-26T10:00:44;23.8;47.1
78522;SHT31;67819;51.972;5.678;2023-06-26T10:03:12;23.8;46.8
78522;SHT31;67819;51.972;5.678;2023-06-26T10:05:41;23.8;47.2
78522;SHT31;67819;51.972;5.678;2023-06-26T10:08:11;23.7;46.7
78522;SHT31;67819;51.972;5.678;2023-06-26T10:10:41;23.7;48.0
78522;SHT31;67819;51.972;5.678;2023-06-26T10:13:18;23.8;47.1
78522;SHT31;67819;51.972;5.678;2023-06-26T10:15:52;23.8;46.9
78522;SHT31;67819;51.972;5.678;2023-06-26T10:18:24;23.8;47.6
78522;SHT31;67819;51.972;5.678;2023-06-26T10:20:56;23.7;48.4
78522;SHT31;67819;51.972;5.678;2023-06-26T10:23:27;23.8;46.4
78522;SHT31;67819;51.972;5.678;2023-06-26T10:25:58;23.8;46.2
78522;SHT31;67819;51.972;5.678;2023-06-26T10:28:32;23.8;45.4
78522;SHT31;67819;51.972;5.678;2023-06-26T10:31:04;23.8;45.5
78522;SHT31;67819;51.972;5.678;2023-06-26T10:33:35;23.8;45.3
78522;SHT31;67819;51.972;5.678;2023-06-26T10:36:14;23.9;44.2
78522;SHT31;67819;51.972;5.678;2023-06-26T10:38:50;24.0;44.3
78522;SHT31;67819;51.972;5.678;2023-06-26T10:41:22;24.0;43.3
78522;SHT31;67819;51.972;5.678;2023-06-26T10:44:08;24.0;43.8
78522;SHT31;67819;51.972;5.678;2023-06-26T10:46:50;24.0;44.6
78522;SHT31;67819;51.972;5.678;2023-06-26T10:49:20;24.0;45.2
78522;SHT31;67819;51.972;5.678;2023-06-26T10:51:50;24.0;44.9
78522;SHT31;67819;51.972;5.678;2023-06-26T10:54:21;24.0;44.5
78522;SHT31;67819;51.972;5.678;2023-06-26T10:56:50;24.0;44.5
78522;SHT31;67819;51.972;5.678;2023-06-26T10:59:25;24.0;42.9
78522;SHT31;67819;51.972;5.678;2023-06-26T11:01:57;24.0;42.7
78522;SHT31;67819;51.972;5.678;2023-06-26T11:04:40;24.0;42.8
78522;SHT31;67819;51.972;5.678;2023-06-26T11:07:18;24.0;43.6
78522;SHT31;67819;51.972;5.678;2023-06-26T11:09:56;24.0;43.3
78522;SHT31;67819;51.972;5.678;2023-06-26T11:12:38;24.0;43.0
78522;SHT31;67819;51.972;5.678;2023-06-26T11:15:12;24.0;42.7
78522;SHT31;67819;51.972;5.678;2023-06-26T11:17:42;24.0;43.3
78522;SHT31;67819;51.972;5.678;2023-06-26T11:20:13;23.9;44.0
78522;SHT31;67819;51.972;5.678;2023-06-26T11:22:43;24.0;45.2
78522;SHT31;67819;51.972;5.678;2023-06-26T11:25:11;24.0;43.5
78522;SHT31;67819;51.972;5.678;2023-06-26T11:27:41;24.0;42.3
78522;SHT31;67819;51.972;5.678;2023-06-26T11:30:11;24.0;42.9
78522;SHT31;67819;51.972;5.678;2023-06-26T11:32:40;24.1;43.0
78522;SHT31;67819;51.972;5.678;2023-06-26T11:35:11;24.1;43.4
78522;SHT31;67819;51.972;5.678;2023-06-26T11:37:39;24.1;44.2
78522;SHT31;67819;51.972;5.678;2023-06-26T11:40:20;24.2;44.5
78522;SHT31;67819;51.972;5.678;2023-06-26T11:42:53;24.3;43.9
78522;SHT31;67819;51.972;5.678;2023-06-26T11:45:24;24.4;43.3
78522;SHT31;67819;51.972;5.678;2023-06-26T11:47:54;24.5;43.3
78522;SHT31;67819;51.972;5.678;2023-06-26T11:50:24;24.6;42.0
78522;SHT31;67819;51.972;5.678;2023-06-26T11:52:56;24.7;41.6
78522;SHT31;67819;51.972;5.678;2023-06-26T11:55:26;24.8;39.5
78522;SHT31;67819;51.972;5.678;2023-06-26T11:57:56;24.8;40.0
78522;SHT31;67819;51.972;5.678;2023-06-26T12:00:27;24.8;41.1
78522;SHT31;67819;51.972;5.678;2023-06-26T12:02:55;24.9;41.3
78522;SHT31;67819;51.972;5.678;2023-06-26T12:05:25;24.9;41.0
78522;SHT31;67819;51.972;5.678;2023-06-26T12:07:54;24.9;40.4
78522;SHT31;67819;51.972;5.678;2023-06-26T12:10:27;25.0;39.8
78522;SHT31;67819;51.972;5.678;2023-06-26T12:12:55;25.1;39.4
78522;SHT31;67819;51.972;5.678;2023-06-26T12:15:28;25.1;40.2
78522;SHT31;67819;51.972;5.678;2023-06-26T12:17:57;25.2;39.8
78522;SHT31;67819;51.972;5.678;2023-06-26T12:20:25;25.2;38.6
78522;SHT31;67819;51.972;5.678;2023-06-26T12:22:59;25.2;39.9
78522;SHT31;67819;51.972;5.678;2023-06-26T12:25:32;25.2;39.3
78522;SHT31;67819;51.972;5.678;2023-06-26T12:28:01;25.3;38.7
78522;SHT31;67819;51.972;5.678;2023-06-26T12:30:29;25.3;37.1
78522;SHT31;67819;51.972;5.678;2023-06-26T12:32:58;25.3;38.7
78522;SHT31;67819;51.972;5.678;2023-06-26T12:35:27;25.3;39.0
78522;SHT31;67819;51.972;5.678;2023-06-26T12:37:55;25.2;40.4
78522;SHT31;67819;51.972;5.678;2023-06-26T12:40:24;25.2;40.1
78522;SHT31;67819;51.972;5.678;2023-06-26T12:42:53;25.3;40.3
78522;SHT31;67819;51.972;5.678;2023-06-26T12:45:23;25.3;40.0
78522;SHT31;67819;51.972;5.678;2023-06-26T12:47:52;25.5;39.7
78522;SHT31;67819;51.972;5.678;2023-06-26T12:50:23;25.6;38.5
78522;SHT31;67819;51.972;5.678;2023-06-26T12:52:51;25.7;37.6
78522;SHT31;67819;51.972;5.678;2023-06-26T12:55:20;25.8;37.5
78522;SHT31;67819;51.972;5.678;2023-06-26T12:57:49;25.8;37.8
78522;SHT31;67819;51.972;5.678;2023-06-26T13:00:18;25.8;38.6
78522;SHT31;67819;51.972;5.678;2023-06-26T13:02:47;25.9;35.5
78522;SHT31;67819;51.972;5.678;2023-06-26T13:05:16;26.0;36.2
78522;SHT31;67819;51.972;5.678;2023-06-26T13:07:44;26.0;36.8
78522;SHT31;67819;51.972;5.678;2023-06-26T13:10:13;26.1;36.5
78522;SHT31;67819;51.972;5.678;2023-06-26T13:12:42;26.1;37.2
78522;SHT31;67819;51.972;5.678;2023-06-26T13:15:11;26.2;34.6
78522;SHT31;67819;51.972;5.678;2023-06-26T13:17:39;26.2;34.5
78522;SHT31;67819;51.972;5.678;2023-06-26T13:20:09;26.2;34.1
78522;SHT31;67819;51.972;5.678;2023-06-26T13:22:37;26.3;34.7
78522;SHT31;67819;51.972;5.678;2023-06-26T13:25:06;26.3;33.7
78522;SHT31;67819;51.972;5.678;2023-06-26T13:27:35;26.3;34.3
78522;SHT31;67819;51.972;5.678;2023-06-26T13:30:04;26.3;34.3
78522;SHT31;67819;51.972;5.678;2023-06-26T13:32:33;26.4;33.8
78522;SHT31;67819;51.972;5.678;2023-06-26T13:35:02;26.4;33.8
78522;SHT31;67819;51.972;5.678;2023-06-26T13:37:31;26.5;33.9
78522;SHT31;67819;51.972;5.678;2023-06-26T13:40:00;26.5;34.0
78522;SHT31;67819;51.972;5.678;2023-06-26T13:42:29;26.6;33.5
78522;SHT31;67819;51.972;5.678;2023-06-26T13:45:00;26.8;34.3
78522;SHT31;67819;51.972;5.678;2023-06-26T13:47:29;26.9;35.1
78522;SHT31;67819;51.972;5.678;2023-06-26T13:49:58;27.1;34.2
78522;SHT31;67819;51.972;5.678;2023-06-26T13:52:27;27.3;33.7
78522;SHT31;67819;51.972;5.678;2023-06-26T13:54:55;27.4;33.3
78522;SHT31;67819;51.972;5.678;2023-06-26T13:57:24;27.5;32.9
78522;SHT31;67819;51.972;5.678;2023-06-26T13:59:55;27.6;34.3
78522;SHT31;67819;51.972;5.678;2023-06-26T14:02:24;27.6;33.8
78522;SHT31;67819;51.972;5.678;2023-06-26T14:04:52;27.6;33.4
78522;SHT31;67819;51.972;5.678;2023-06-26T14:07:21;27.5;34.7
78522;SHT31;67819;51.972;5.678;2023-06-26T14:09:49;27.5;33.8
78522;SHT31;67819;51.972;5.678;2023-06-26T14:12:20;27.4;33.9
78522;SHT31;67819;51.972;5.678;2023-06-26T14:14:51;27.3;33.8
78522;SHT31;67819;51.972;5.678;2023-06-26T14:17:20;27.3;34.3
78522;SHT31;67819;51.972;5.678;2023-06-26T14:19:50;27.2;33.1
78522;SHT31;67819;51.972;5.678;2023-06-26T14:22:19;27.1;33.4
78522;SHT31;67819;51.972;5.678;2023-06-26T14:24:48;27.1;34.7
78522;SHT31;67819;51.972;5.678;2023-06-26T14:27:16;27.1;34.5
78522;SHT31;67819;51.972;5.678;2023-06-26T14:29:45;27.0;32.5
78522;SHT31;67819;51.972;5.678;2023-06-26T14:32:14;26.9;33.3
78522;SHT31;67819;51.972;5.678;2023-06-26T14:34:42;26.7;34.3
78522;SHT31;67819;51.972;5.678;2023-06-26T14:37:11;26.6;34.3
78522;SHT31;67819;51.972;5.678;2023-06-26T14:39:41;26.4;35.3
78522;SHT31;67819;51.972;5.678;2023-06-26T14:42:10;26.3;35.0
78522;SHT31;67819;51.972;5.678;2023-06-26T14:44:39;26.2;35.9
78522;SHT31;67819;51.972;5.678;2023-06-26T14:47:08;26.0;35.8
78522;SHT31;67819;51.972;5.678;2023-06-26T14:49:37;25.9;35.9
78522;SHT31;67819;51.972;5.678;2023-06-26T14:52:06;25.8;36.0
78522;SHT31;67819;51.972;5.678;2023-06-26T14:54:34;25.8;36.0
78522;SHT31;67819;51.972;5.678;2023-06-26T14:57:04;25.7;35.8
78522;SHT31;67819;51.972;5.678;2023-06-26T14:59:32;25.6;35.5
78522;SHT31;67819;51.972;5.678;2023-06-26T15:02:01;25.5;37.0
78522;SHT31;67819;51.972;5.678;2023-06-26T15:04:31;25.4;38.1
78522;SHT31;67819;51.972;5.678;2023-06-26T15:07:00;25.4;37.8
78522;SHT31;67819;51.972;5.678;2023-06-26T15:09:29;25.4;38.4
78522;SHT31;67819;51.972;5.678;2023-06-26T15:11:58;25.3;37.3
78522;SHT31;67819;51.972;5.678;2023-06-26T15:14:27;25.3;36.4
78522;SHT31;67819;51.972;5.678;2023-06-26T15:16:56;25.2;37.9
78522;SHT31;67819;51.972;5.678;2023-06-26T15:19:24;25.2;37.4
78522;SHT31;67819;51.972;5.678;2023-06-26T15:21:53;25.2;36.3
78522;SHT31;67819;51.972;5.678;2023-06-26T15:24:22;25.1;37.1
78522;SHT31;67819;51.972;5.678;2023-06-26T15:26:50;25.0;37.8
78522;SHT31;67819;51.972;5.678;2023-06-26T15:29:19;24.9;36.8
78522;SHT31;67819;51.972;5.678;2023-06-26T15:31:48;24.9;36.8
78522;SHT31;67819;51.972;5.678;2023-06-26T15:34:16;24.8;37.7
78522;SHT31;67819;51.972;5.678;2023-06-26T15:36:45;24.7;38.4
78522;SHT31;67819;51.972;5.678;2023-06-26T15:39:15;24.7;38.5
78522;SHT31;67819;51.972;5.678;2023-06-26T15:41:44;24.7;37.9
78522;SHT31;67819;51.972;5.678;2023-06-26T15:44:15;24.7;37.6
78522;SHT31;67819;51.972;5.678;2023-06-26T15:46:43;24.7;37.2
78522;SHT31;67819;51.972;5.678;2023-06-26T15:49:12;24.7;37.6
78522;SHT31;67819;51.972;5.678;2023-06-26T15:51:41;24.7;38.5
78522;SHT31;67819;51.972;5.678;2023-06-26T15:54:11;24.7;37.7
78522;SHT31;67819;51.972;5.678;2023-06-26T15:56:40;24.8;38.4
78522;SHT31;67819;51.972;5.678;2023-06-26T15:59:10;24.8;38.2
78522;SHT31;67819;51.972;5.678;2023-06-26T16:01:38;24.8;38.3
78522;SHT31;67819;51.972;5.678;2023-06-26T16:04:07;24.8;39.9
78522;SHT31;67819;51.972;5.678;2023-06-26T16:06:35;24.8;38.3
78522;SHT31;67819;51.972;5.678;2023-06-26T16:09:05;24.9;38.3
78522;SHT31;67819;51.972;5.678;2023-06-26T16:11:34;24.9;38.7
78522;SHT31;67819;51.972;5.678;2023-06-26T16:14:03;24.9;37.6
78522;SHT31;67819;51.972;5.678;2023-06-26T16:16:32;24.9;38.4
78522;SHT31;67819;51.972;5.678;2023-06-26T16:19:00;24.9;38.2